Jericho, New Jersey
Current Conditions -  °F | °C
As of 5:54 AM on Friday 28 Nov 2014 (Local Time) from KPHL Reporting Station
Few Clouds Few Clouds  
Wind Chill: 27°   Ceiling: Unl
Heat Index: 34°   Visibility: 10mi
Dew Point: 22°   Wind: 9mph
Humidity: 61%   Direction: 290°WNW
Pressure: 30.17"   Gusts: NA
Location:  39.8266°N, 75.1276°W
Report Text: KPHL 281054Z 29008KT 10SM FEW065 01/M06 A3017 RMK AO2 SLP216 T00111056 $
Loading
Personal Weather Stations






























Interactive Weather Map New forecast layout! Learn more

10-Day Weather Forecast

Advertisements
Track Severe Weather on mobile